Time;durP1;ratioP1;P1;durP2;ratioP2;P2;SDS_P1;SDS_P2;PMS_P1;PMS_P2;Temp;Humidity;BMP_temperature;BMP_pressure;BME280_temperature;BME280_humidity;BME280_pressure;Samples;Min_cycle;Max_cycle;Signal;HPM_P1;HPM_P2
2022/03/26 00:00:46;;;;;;;185.00;71.77;;;6.70;1.00;;;;;;4992817;28;20259;-54
2022/03/26 00:03:13;;;;;;;179.47;69.73;;;6.70;1.00;;;;;;4993430;28;20431;-54
2022/03/26 00:05:39;;;;;;;196.90;78.43;;;6.70;1.00;;;;;;4993873;28;20201;-55
2022/03/26 00:08:05;;;;;;;212.82;90.43;;;6.60;1.00;;;;;;4992517;28;20786;-53
2022/03/26 00:10:31;;;;;;;202.20;78.80;;;6.60;1.00;;;;;;4993301;28;20189;-54
2022/03/26 00:12:57;;;;;;;198.13;76.27;;;6.60;1.00;;;;;;4993094;28;20180;-55
2022/03/26 00:15:23;;;;;;;182.37;75.07;;;6.60;1.00;;;;;;4989098;28;20188;-55
2022/03/26 00:17:49;;;;;;;202.37;78.10;;;6.60;1.00;;;;;;4975962;28;20853;-54
2022/03/26 00:20:14;;;;;;;195.63;72.83;;;6.60;1.00;;;;;;4986993;28;20558;-54
2022/03/26 00:22:40;;;;;;;172.37;69.30;;;6.60;1.00;;;;;;4992838;28;20192;-54
2022/03/26 00:25:06;;;;;;;187.27;69.63;;;6.70;1.00;;;;;;4988459;28;20676;-57
2022/03/26 00:27:32;;;;;;;167.80;66.50;;;6.70;1.00;;;;;;4992675;28;20197;-54
2022/03/26 00:29:59;;;;;;;173.13;66.60;;;6.70;1.00;;;;;;4975203;28;20515;-54
2022/03/26 00:32:25;;;;;;;183.07;68.47;;;6.80;1.00;;;;;;4992658;28;20646;-54
2022/03/26 00:34:50;;;;;;;159.80;64.10;;;6.70;1.00;;;;;;4991473;28;20446;-54
2022/03/26 00:37:16;;;;;;;170.30;67.00;;;6.70;1.00;;;;;;4992008;28;20435;-54
2022/03/26 00:39:42;;;;;;;160.37;64.23;;;6.70;1.00;;;;;;4992509;28;20192;-54
2022/03/26 00:42:09;;;;;;;170.77;68.30;;;6.60;1.00;;;;;;4992698;28;20196;-54
2022/03/26 00:44:36;;;;;;;171.83;68.30;;;6.60;1.00;;;;;;4992624;28;20450;-54
2022/03/26 00:47:02;;;;;;;168.37;68.20;;;6.60;1.00;;;;;;4991975;28;20471;-54
2022/03/26 00:49:27;;;;;;;168.23;67.43;;;6.60;1.00;;;;;;4991503;28;20443;-54
2022/03/26 00:51:53;;;;;;;167.57;66.83;;;6.50;1.00;;;;;;4992021;28;20431;-54
2022/03/26 00:54:19;;;;;;;172.27;67.13;;;6.50;1.00;;;;;;4992214;28;20520;-54
2022/03/26 00:56:44;;;;;;;164.00;65.20;;;6.40;1.00;;;;;;4992719;28;20185;-54
2022/03/26 00:59:10;;;;;;;166.77;66.87;;;6.40;1.00;;;;;;4992444;28;20709;-54
2022/03/26 01:01:35;;;;;;;167.60;65.77;;;6.30;1.00;;;;;;4992523;28;20196;-54
2022/03/26 01:04:01;;;;;;;177.57;70.90;;;6.30;1.00;;;;;;4992136;28;20252;-54
2022/03/26 01:06:28;;;;;;;164.80;65.80;;;6.20;1.00;;;;;;4991693;28;20630;-55
2022/03/26 01:08:54;;;;;;;166.43;64.90;;;6.20;1.00;;;;;;4991796;28;20688;-55
2022/03/26 01:11:20;;;;;;;160.20;66.53;;;6.20;1.00;;;;;;4991690;28;20826;-54
2022/03/26 01:13:48;;;;;;;159.20;62.60;;;6.20;1.00;;;;;;4991691;28;20438;-54
2022/03/26 01:16:14;;;;;;;171.30;65.10;;;6.10;1.00;;;;;;4991524;28;20998;-54
2022/03/26 01:18:40;;;;;;;173.03;70.20;;;6.10;1.00;;;;;;4987897;28;20479;-54
2022/03/26 01:21:05;;;;;;;169.03;65.30;;;6.10;1.00;;;;;;4991457;28;20474;-54
2022/03/26 01:23:31;;;;;;;182.13;67.03;;;6.00;1.00;;;;;;4991584;28;20440;-54
2022/03/26 01:25:58;;;;;;;175.23;67.70;;;6.00;1.00;;;;;;4991438;28;20192;-54
2022/03/26 01:28:24;;;;;;;182.70;70.50;;;6.00;1.00;;;;;;4993596;28;20271;-54
2022/03/26 01:30:49;;;;;;;166.00;67.03;;;6.10;1.00;;;;;;4989192;28;20586;-54
2022/03/26 01:33:15;;;;;;;175.97;63.83;;;6.10;1.00;;;;;;4967282;28;20312;-54
2022/03/26 01:35:40;;;;;;;172.33;67.73;;;6.10;1.00;;;;;;4991249;28;20200;-53
2022/03/26 01:38:07;;;;;;;174.67;66.10;;;6.00;1.00;;;;;;4987505;28;20226;-53
2022/03/26 01:40:34;;;;;;;173.97;64.80;;;6.00;1.00;;;;;;4991546;28;20204;-54
2022/03/26 01:42:59;;;;;;;174.83;67.23;;;6.00;1.00;;;;;;4992589;28;20518;-54
2022/03/26 01:45:27;;;;;;;169.07;66.40;;;6.00;1.00;;;;;;4989567;28;20875;-54
2022/03/26 01:47:54;;;;;;;182.53;67.20;;;5.90;1.00;;;;;;4989196;28;20181;-54
2022/03/26 01:50:19;;;;;;;168.97;68.27;;;6.00;1.00;;;;;;4989962;28;20432;-54
2022/03/26 01:52:45;;;;;;;172.77;71.13;;;5.90;1.00;;;;;;4990845;28;20774;-53
2022/03/26 01:55:11;;;;;;;186.03;69.03;;;5.90;1.00;;;;;;4990991;28;20207;-54
2022/03/26 01:57:38;;;;;;;165.40;66.83;;;5.90;1.00;;;;;;4993223;28;20475;-54
2022/03/26 02:00:06;;;;;;;182.97;66.53;;;5.90;1.00;;;;;;4990298;28;20219;-53
2022/03/26 02:02:33;;;;;;;180.77;65.67;;;5.90;1.00;;;;;;4989161;28;20921;-54
2022/03/26 02:05:00;;;;;;;178.40;65.80;;;5.90;1.00;;;;;;4989518;28;20436;-53
2022/03/26 02:07:26;;;;;;;164.53;65.37;;;6.00;1.00;;;;;;4993399;28;20489;-54
2022/03/26 02:09:51;;;;;;;156.97;63.33;;;6.00;1.00;;;;;;4990405;28;20522;-54
2022/03/26 02:12:28;;;;;;;178.50;68.27;;;6.10;1.00;;;;;;4992191;28;20622;-53
2022/03/26 02:14:56;;;;;;;177.10;65.27;;;6.10;1.00;;;;;;4974130;28;20254;-53
2022/03/26 02:17:22;;;;;;;164.50;64.43;;;6.10;1.00;;;;;;4993874;28;20555;-54
2022/03/26 02:19:58;;;;;;;163.67;63.50;;;6.10;1.00;;;;;;4992479;28;20652;-54
2022/03/26 02:22:26;;;;;;;164.07;64.37;;;6.00;1.00;;;;;;4992487;28;20458;-53
2022/03/26 02:24:53;;;;;;;173.20;65.50;;;6.00;1.00;;;;;;4989855;28;20471;-54
2022/03/26 02:27:18;;;;;;;164.37;61.37;;;6.10;1.00;;;;;;4990661;28;20967;-54
2022/03/26 02:29:44;;;;;;;150.40;59.00;;;6.00;1.00;;;;;;4990339;28;20432;-54
2022/03/26 02:32:10;;;;;;;156.97;61.23;;;6.10;1.00;;;;;;4989892;28;20549;-53
2022/03/26 02:34:35;;;;;;;156.00;60.93;;;6.00;1.00;;;;;;4990101;28;20208;-53
2022/03/26 02:37:01;;;;;;;155.23;59.27;;;6.00;1.00;;;;;;4990470;28;20780;-54
2022/03/26 02:39:27;;;;;;;147.03;59.20;;;6.10;1.00;;;;;;4990320;28;20234;-59
2022/03/26 02:41:53;;;;;;;150.37;57.57;;;6.10;1.00;;;;;;4989724;28;20224;-53
2022/03/26 02:44:19;;;;;;;145.07;60.23;;;6.20;1.00;;;;;;4990694;28;20462;-54
2022/03/26 02:46:45;;;;;;;146.70;57.33;;;6.20;1.00;;;;;;4991338;28;20188;-57
2022/03/26 02:49:15;;;;;;;154.33;57.97;;;6.20;1.00;;;;;;4980661;28;20444;-54
2022/03/26 02:51:41;;;;;;;140.47;57.43;;;6.20;1.00;;;;;;4990230;28;20482;-54
2022/03/26 02:54:18;;;;;;;140.23;54.70;;;6.10;1.00;;;;;;4989911;28;20435;-53
2022/03/26 02:56:45;;;;;;;131.00;54.20;;;6.20;1.00;;;;;;4990596;28;20493;-53
2022/03/26 02:59:10;;;;;;;145.50;58.30;;;6.10;1.00;;;;;;4986168;28;20489;-54
2022/03/26 03:01:36;;;;;;;141.57;56.20;;;6.10;1.00;;;;;;4989117;28;20467;-53
2022/03/26 03:04:01;;;;;;;145.93;56.57;;;6.00;1.00;;;;;;4989111;28;20196;-54
2022/03/26 03:06:27;;;;;;;135.93;55.30;;;6.00;1.00;;;;;;4993087;28;20649;-58
2022/03/26 03:08:53;;;;;;;143.80;56.93;;;6.10;1.00;;;;;;4990466;28;20196;-53
2022/03/26 03:11:18;;;;;;;138.17;54.80;;;6.10;1.00;;;;;;4993297;28;20607;-53
2022/03/26 03:13:44;;;;;;;144.37;55.37;;;6.10;1.00;;;;;;4991686;28;20275;-53
2022/03/26 03:16:09;;;;;;;123.77;53.53;;;6.10;1.00;;;;;;4993861;28;20717;-53
2022/03/26 03:18:35;;;;;;;140.43;53.87;;;6.10;1.00;;;;;;4990331;28;20196;-53
2022/03/26 03:21:01;;;;;;;138.27;55.27;;;6.20;1.00;;;;;;4995235;28;20243;-54
2022/03/26 03:23:26;;;;;;;127.37;53.93;;;6.30;1.00;;;;;;4990227;28;20184;-53
2022/03/26 03:25:52;;;;;;;127.67;52.60;;;6.30;99.90;;;;;;4993834;28;20188;-53
2022/03/26 03:28:17;;;;;;;127.87;52.10;;;6.30;99.90;;;;;;4993508;28;20219;-54
2022/03/26 03:30:43;;;;;;;128.07;54.23;;;6.20;1.00;;;;;;4993185;28;20196;-54
2022/03/26 03:33:08;;;;;;;138.73;53.10;;;6.20;1.00;;;;;;4993799;28;20199;-53
2022/03/26 03:35:34;;;;;;;141.97;56.37;;;6.20;1.00;;;;;;4993665;28;20191;-54
2022/03/26 03:37:59;;;;;;;139.13;54.10;;;6.10;1.00;;;;;;4993608;28;20212;-54
2022/03/26 03:40:25;;;;;;;144.40;57.57;;;6.10;1.00;;;;;;4993020;28;20222;-53
2022/03/26 03:42:53;;;;;;;143.67;56.40;;;6.10;1.00;;;;;;4993512;28;20191;-53
2022/03/26 03:45:18;;;;;;;142.60;57.27;;;6.10;1.00;;;;;;4989400;28;20592;-54
2022/03/26 03:47:43;;;;;;;135.83;55.20;;;6.10;1.00;;;;;;4992999;28;20439;-53
2022/03/26 03:50:09;;;;;;;138.47;55.40;;;6.10;1.00;;;;;;4993319;28;20184;-53
2022/03/26 03:52:35;;;;;;;140.63;54.10;;;6.10;1.00;;;;;;4989862;28;20184;-54
2022/03/26 03:55:00;;;;;;;142.47;53.60;;;6.10;1.00;;;;;;4992706;28;20274;-54
2022/03/26 03:57:26;;;;;;;140.03;54.43;;;6.10;1.00;;;;;;4995727;28;20940;-53
2022/03/26 03:59:52;;;;;;;135.23;54.13;;;6.10;1.00;;;;;;4975660;28;20195;-53
2022/03/26 04:02:17;;;;;;;129.30;53.57;;;6.10;1.00;;;;;;4993182;28;20299;-54
2022/03/26 04:04:43;;;;;;;140.33;54.10;;;6.10;1.00;;;;;;4993614;28;20265;-53
2022/03/26 04:07:09;;;;;;;144.83;56.67;;;6.10;1.00;;;;;;4993069;28;20277;-53
2022/03/26 04:09:36;;;;;;;151.50;57.97;;;6.10;1.00;;;;;;4995374;28;20211;-53
2022/03/26 04:12:02;;;;;;;144.13;55.90;;;6.10;1.00;;;;;;4992577;28;20439;-54
2022/03/26 04:14:29;;;;;;;155.87;59.13;;;6.10;1.00;;;;;;4992052;28;20471;-53
2022/03/26 04:16:54;;;;;;;159.97;60.57;;;6.00;1.00;;;;;;4994658;28;20443;-53
2022/03/26 04:19:20;;;;;;;150.53;59.30;;;6.00;1.00;;;;;;4992919;28;20914;-54
2022/03/26 04:21:46;;;;;;;150.20;59.93;;;6.00;1.00;;;;;;4992155;28;20294;-53
2022/03/26 04:24:12;;;;;;;161.20;60.27;;;5.90;1.00;;;;;;4992560;28;20196;-54
2022/03/26 04:26:38;;;;;;;170.57;65.90;;;6.00;1.00;;;;;;4993122;28;20420;-54
2022/03/26 04:29:04;;;;;;;159.30;62.20;;;5.90;1.00;;;;;;4990953;28;20440;-54
2022/03/26 04:31:29;;;;;;;164.50;63.20;;;5.90;1.00;;;;;;4992751;28;20192;-53
2022/03/26 04:33:55;;;;;;;166.87;62.20;;;5.90;1.00;;;;;;4974006;28;20286;-54
2022/03/26 04:36:20;;;;;;;167.50;65.53;;;5.90;1.00;;;;;;4989785;28;20193;-54
2022/03/26 04:38:47;;;;;;;179.47;65.50;;;6.00;1.00;;;;;;4990201;28;20196;-54
2022/03/26 04:41:13;;;;;;;162.63;62.77;;;5.90;1.00;;;;;;4989034;28;20212;-54
2022/03/26 04:43:39;;;;;;;169.57;65.57;;;5.90;1.00;;;;;;4992585;28;21168;-53
2022/03/26 04:46:05;;;;;;;170.97;66.50;;;5.90;1.00;;;;;;4992374;28;20526;-53
2022/03/26 04:48:31;;;;;;;174.17;67.13;;;6.00;1.00;;;;;;4991272;28;20719;-54
2022/03/26 04:50:56;;;;;;;167.13;66.30;;;5.90;1.00;;;;;;4992814;28;20768;-53
2022/03/26 04:53:22;;;;;;;180.63;65.30;;;5.90;1.00;;;;;;4992275;28;20176;-53
2022/03/26 04:55:48;;;;;;;173.57;65.17;;;5.90;1.00;;;;;;4992666;28;20207;-54
2022/03/26 04:58:13;;;;;;;167.73;66.43;;;6.00;1.00;;;;;;4995255;28;20278;-54
2022/03/26 05:00:40;;;;;;;173.00;69.10;;;6.00;1.00;;;;;;4991910;28;20231;-54
2022/03/26 05:03:05;;;;;;;177.80;67.20;;;5.90;1.00;;;;;;4974494;28;20189;-54
2022/03/26 05:05:31;;;;;;;187.77;66.23;;;5.90;1.00;;;;;;4994402;28;20517;-53
2022/03/26 05:07:59;;;;;;;156.87;64.80;;;5.80;1.00;;;;;;4992171;28;20199;-54
2022/03/26 05:10:28;;;;;;;188.30;69.57;;;5.90;1.00;;;;;;4986029;28;20192;-53
2022/03/26 05:12:55;;;;;;;184.37;72.00;;;6.00;1.00;;;;;;4991822;28;20913;-54
2022/03/26 05:15:23;;;;;;;183.90;68.90;;;5.90;1.00;;;;;;4991111;28;20454;-53
2022/03/26 05:17:50;;;;;;;184.87;70.03;;;5.90;1.00;;;;;;4991377;28;20436;-53
2022/03/26 05:20:16;;;;;;;184.73;70.53;;;5.90;1.00;;;;;;4988634;28;20471;-53
2022/03/26 05:22:43;;;;;;;191.10;70.00;;;5.90;1.00;;;;;;4991630;28;20434;-54
2022/03/26 05:25:09;;;;;;;190.60;72.10;;;5.80;1.00;;;;;;4991855;28;20427;-54
2022/03/26 05:27:35;;;;;;;193.30;70.87;;;5.80;1.00;;;;;;4991508;28;20427;-54
2022/03/26 05:30:02;;;;;;;192.20;72.50;;;5.80;1.00;;;;;;4991912;28;20924;-54
2022/03/26 05:32:28;;;;;;;195.10;73.77;;;5.80;1.00;;;;;;4974396;28;20964;-53
2022/03/26 05:34:53;;;;;;;217.60;76.50;;;5.70;1.00;;;;;;4991616;28;20451;-54
2022/03/26 05:37:19;;;;;;;190.23;71.40;;;5.70;1.00;;;;;;4991107;28;20195;-54
2022/03/26 05:39:45;;;;;;;199.27;73.60;;;5.70;8.70;;;;;;4992323;28;20857;-50
2022/03/26 05:42:12;;;;;;;200.27;73.60;;;5.70;25.10;;;;;;4991748;28;20208;-50
2022/03/26 05:44:37;;;;;;;195.47;77.00;;;5.70;33.70;;;;;;4991590;28;20427;-50
2022/03/26 05:47:03;;;;;;;186.80;73.50;;;5.70;77.10;;;;;;4991295;28;20809;-50
2022/03/26 05:49:29;;;;;;;218.90;77.23;;;5.80;46.80;;;;;;4991544;28;20276;-50
2022/03/26 05:51:55;;;;;;;204.33;76.17;;;5.80;91.20;;;;;;4991758;28;20646;-50
2022/03/26 05:54:20;;;;;;;193.37;73.37;;;5.90;99.90;;;;;;4991410;28;20208;-50
2022/03/26 05:56:51;;;;;;;198.70;73.37;;;5.90;99.90;;;;;;4992235;28;20192;-50
2022/03/26 05:59:18;;;;;;;211.50;74.97;;;6.00;99.90;;;;;;4990536;28;20192;-50
2022/03/26 06:01:43;;;;;;;206.87;73.07;;;6.00;99.90;;;;;;4986834;28;20482;-50
2022/03/26 06:04:09;;;;;;;218.73;80.77;;;6.10;99.90;;;;;;4990968;28;20444;-51
2022/03/26 06:06:34;;;;;;;208.57;73.03;;;6.10;81.20;;;;;;4992777;28;20192;-50
2022/03/26 06:09:00;;;;;;;210.80;76.67;;;6.20;46.20;;;;;;4989674;28;20601;-50
2022/03/26 06:11:27;;;;;;;202.43;73.93;;;6.20;5.30;;;;;;4986759;28;20226;-50
2022/03/26 06:13:52;;;;;;;197.43;74.40;;;6.30;12.80;;;;;;4988904;28;20318;-50
2022/03/26 06:16:18;;;;;;;202.13;74.10;;;6.30;1.00;;;;;;4989369;28;21020;-50
2022/03/26 06:18:43;;;;;;;199.20;73.13;;;6.40;1.00;;;;;;4987630;28;20668;-50
2022/03/26 06:21:09;;;;;;;204.00;73.57;;;6.40;1.00;;;;;;4985702;28;20299;-50
2022/03/26 06:23:35;;;;;;;200.50;75.70;;;6.50;1.00;;;;;;4990629;28;20574;-50
2022/03/26 06:26:00;;;;;;;197.50;72.27;;;6.60;1.00;;;;;;4990905;28;20244;-50
2022/03/26 06:28:26;;;;;;;194.37;73.00;;;6.60;1.00;;;;;;4990973;28;20577;-53
2022/03/26 06:30:52;;;;;;;200.97;73.47;;;6.70;1.00;;;;;;4985359;28;20283;-50
2022/03/26 06:33:18;;;;;;;201.37;74.47;;;6.70;1.00;;;;;;4994289;28;20192;-50
2022/03/26 06:35:45;;;;;;;195.80;74.27;;;6.80;1.00;;;;;;4988405;28;20531;-54
2022/03/26 06:38:11;;;;;;;200.83;73.93;;;7.00;1.00;;;;;;4960415;28;20442;-53
2022/03/26 06:40:37;;;;;;;193.07;71.10;;;7.20;1.00;;;;;;4992876;28;20964;-54
2022/03/26 06:43:04;;;;;;;180.00;69.70;;;7.50;1.00;;;;;;4993859;28;20431;-53
2022/03/26 06:45:29;;;;;;;176.53;68.67;;;7.60;1.00;;;;;;4988596;28;20436;-54
2022/03/26 06:47:55;;;;;;;172.67;65.80;;;7.80;1.00;;;;;;4991304;28;20447;-53
2022/03/26 06:50:20;;;;;;;181.80;66.37;;;7.90;1.00;;;;;;4991841;28;20860;-54
2022/03/26 06:52:46;;;;;;;160.60;65.90;;;8.00;1.00;;;;;;4992585;28;20203;-54
2022/03/26 06:55:11;;;;;;;161.23;63.57;;;8.10;1.00;;;;;;4992487;28;20203;-53
2022/03/26 06:57:37;;;;;;;172.03;63.80;;;8.30;99.90;;;;;;4990957;28;20240;-53
2022/03/26 07:00:05;;;;;;;146.67;63.70;;;8.40;99.90;;;;;;4990810;28;20250;-53
2022/03/26 07:02:31;;;;;;;153.27;61.23;;;8.60;99.90;;;;;;4992488;28;20189;-53
2022/03/26 07:04:57;;;;;;;152.10;63.50;;;8.70;99.90;;;;;;4976084;28;20435;-54
2022/03/26 07:07:23;;;;;;;147.93;61.53;;;8.90;99.90;;;;;;4993322;28;20192;-53
2022/03/26 07:09:48;;;;;;;150.07;60.40;;;9.10;99.90;;;;;;4993282;28;21188;-53
2022/03/26 07:12:14;;;;;;;135.40;58.80;;;9.40;99.90;;;;;;4992282;28;20219;-53
2022/03/26 07:14:40;;;;;;;123.43;54.90;;;9.80;99.90;;;;;;4993849;28;20230;-53
2022/03/26 07:17:05;;;;;;;131.70;55.20;;;10.30;99.90;;;;;;4996894;28;20203;-54
2022/03/26 07:19:31;;;;;;;129.13;54.30;;;10.70;99.90;;;;;;4990683;28;20434;-55
2022/03/26 07:21:57;;;;;;;113.97;50.90;;;11.00;99.90;;;;;;4997015;28;20223;-53
2022/03/26 07:24:22;;;;;;;116.40;51.53;;;11.20;99.90;;;;;;4994895;28;20287;-53
2022/03/26 07:26:48;;;;;;;107.93;50.10;;;11.40;99.90;;;;;;4995548;28;20211;-53
2022/03/26 07:29:13;;;;;;;118.17;52.63;;;11.40;99.90;;;;;;4996615;28;20195;-53
2022/03/26 07:31:39;;;;;;;102.90;49.27;;;11.30;99.90;;;;;;4987303;28;20236;-53
2022/03/26 07:34:04;;;;;;;98.57;48.87;;;11.60;99.90;;;;;;4992893;28;20192;-53
2022/03/26 07:36:32;;;;;;;93.60;45.63;;;12.00;99.90;;;;;;4991707;28;20238;-53
2022/03/26 07:38:58;;;;;;;107.33;47.53;;;12.30;99.90;;;;;;4993713;28;20203;-53
2022/03/26 07:41:23;;;;;;;97.57;45.27;;;12.20;99.90;;;;;;4993137;28;20467;-53
2022/03/26 07:43:49;;;;;;;98.93;45.37;;;12.50;99.90;;;;;;4994514;28;20921;-50
2022/03/26 07:46:18;;;;;;;85.00;43.10;;;12.60;99.90;;;;;;4977102;28;20209;-50
2022/03/26 07:48:44;;;;;;;89.70;43.50;;;13.00;99.90;;;;;;4993478;28;20184;-50
2022/03/26 07:51:10;;;;;;;80.23;40.20;;;13.00;99.90;;;;;;4991998;28;20446;-50
2022/03/26 07:53:36;;;;;;;86.40;41.57;;;13.20;99.90;;;;;;4993495;28;20435;-50
2022/03/26 07:56:02;;;;;;;82.30;40.27;;;13.40;99.90;;;;;;4989159;28;20550;-50
2022/03/26 07:58:27;;;;;;;83.97;42.30;;;13.60;99.90;;;;;;4996745;28;20236;-50
2022/03/26 08:00:53;;;;;;;72.83;35.83;;;13.50;99.90;;;;;;4994934;28;20215;-50
2022/03/26 08:03:19;;;;;;;69.27;36.43;;;13.30;99.90;;;;;;4993548;28;20219;-51
2022/03/26 08:05:44;;;;;;;76.00;36.37;;;13.00;99.90;;;;;;4987588;28;20596;-50
2022/03/26 08:08:10;;;;;;;74.57;35.27;;;12.90;99.90;;;;;;4990186;28;20184;-50
2022/03/26 08:10:35;;;;;;;64.83;34.33;;;12.70;99.90;;;;;;4975266;28;20194;-50
2022/03/26 08:13:01;;;;;;;72.53;36.30;;;12.70;99.90;;;;;;4990340;28;20544;-50
2022/03/26 08:15:27;;;;;;;63.20;33.30;;;12.70;99.90;;;;;;4989672;28;20199;-50
2022/03/26 08:17:53;;;;;;;64.67;33.20;;;12.80;99.90;;;;;;4989391;28;20621;-50
2022/03/26 08:20:18;;;;;;;58.37;30.73;;;13.00;99.90;;;;;;4975130;28;20474;-50
2022/03/26 08:22:44;;;;;;;59.57;32.10;;;13.40;99.90;;;;;;4990758;28;20199;-50
2022/03/26 08:25:10;;;;;;;62.40;30.50;;;13.70;99.90;;;;;;4974637;28;20188;-50
2022/03/26 08:27:36;;;;;;;57.80;29.80;;;13.90;99.90;;;;;;4993114;28;20197;-50
2022/03/26 08:30:04;;;;;;;51.97;28.73;;;13.80;99.90;;;;;;4993240;28;20439;-50
2022/03/26 08:32:30;;;;;;;55.27;27.20;;;13.60;99.90;;;;;;4987367;28;20439;-50
2022/03/26 08:34:55;;;;;;;44.37;24.70;;;13.50;99.90;;;;;;4992173;28;20445;-50
2022/03/26 08:37:21;;;;;;;43.20;26.00;;;13.20;99.90;;;;;;4991041;28;20199;-50
2022/03/26 08:39:46;;;;;;;45.07;21.83;;;13.00;99.90;;;;;;4990227;28;20208;-50
2022/03/26 08:42:12;;;;;;;40.13;21.20;;;13.20;99.90;;;;;;4992108;28;20212;-50
2022/03/26 08:44:38;;;;;;;38.27;20.63;;;13.40;99.90;;;;;;4988123;28;20244;-50
2022/03/26 08:47:05;;;;;;;39.23;22.50;;;13.20;99.90;;;;;;4983947;28;20180;-50
2022/03/26 08:49:32;;;;;;;47.90;24.30;;;13.20;99.90;;;;;;4990601;28;20789;-50
2022/03/26 08:51:57;;;;;;;42.97;22.27;;;13.20;99.90;;;;;;4984560;28;20436;-50
2022/03/26 08:54:23;;;;;;;44.83;22.63;;;13.00;99.90;;;;;;4971624;28;20450;-53
2022/03/26 08:56:49;;;;;;;47.20;23.70;;;12.80;99.90;;;;;;4994795;28;20203;-53
2022/03/26 08:59:14;;;;;;;41.00;21.40;;;12.70;99.90;;;;;;4973783;28;20219;-53
2022/03/26 09:01:40;;;;;;;41.30;22.80;;;13.00;99.90;;;;;;4985656;28;20214;-53
2022/03/26 09:04:06;;;;;;;39.83;20.87;;;13.50;99.90;;;;;;4988721;28;20263;-53
2022/03/26 09:06:31;;;;;;;44.07;23.40;;;13.60;99.90;;;;;;4988607;28;20196;-54
2022/03/26 09:08:58;;;;;;;43.47;21.63;;;13.70;99.90;;;;;;4990020;28;20218;-53
2022/03/26 09:11:24;;;;;;;41.93;22.17;;;14.20;99.90;;;;;;4993997;28;20206;-53
2022/03/26 09:13:49;;;;;;;38.13;19.93;;;14.70;99.90;;;;;;4989043;28;20454;-53
2022/03/26 09:16:15;;;;;;;33.07;17.90;;;14.70;99.90;;;;;;4979945;28;20247;-53
2022/03/26 09:18:40;;;;;;;29.77;16.77;;;14.50;99.90;;;;;;5012137;28;20222;-51
2022/03/26 09:21:06;;;;;;;28.23;16.30;;;14.30;99.90;;;;;;4980693;28;20294;-50
2022/03/26 09:23:32;;;;;;;35.97;14.53;;;14.20;99.90;;;;;;4999603;28;20254;-50
2022/03/26 09:25:59;;;;;;;30.43;14.27;;;13.90;99.90;;;;;;4985791;28;20192;-50
2022/03/26 09:28:25;;;;;;;28.30;14.60;;;13.60;99.90;;;;;;4991273;28;20427;-51
2022/03/26 09:30:51;;;;;;;30.43;14.60;;;13.30;99.90;;;;;;4975399;28;20850;-50
2022/03/26 09:33:16;;;;;;;24.30;13.23;;;13.20;99.90;;;;;;4984824;28;20188;-49
2022/03/26 09:35:42;;;;;;;28.23;14.10;;;13.10;99.90;;;;;;4995258;28;20211;-50
2022/03/26 09:38:07;;;;;;;25.50;14.53;;;13.10;99.90;;;;;;4990452;28;20199;-50
2022/03/26 09:40:34;;;;;;;28.03;14.43;;;13.10;99.90;;;;;;4992574;28;20265;-50
2022/03/26 09:43:01;;;;;;;26.53;13.90;;;13.20;99.90;;;;;;4993460;28;20197;-50
2022/03/26 09:45:27;;;;;;;23.07;13.93;;;13.30;99.90;;;;;;4968906;28;20594;-50
2022/03/26 09:47:54;;;;;;;27.30;14.03;;;13.60;99.90;;;;;;4989058;28;20571;-50
2022/03/26 09:50:21;;;;;;;24.50;12.87;;;13.90;99.90;;;;;;4988312;28;20196;-50
2022/03/26 09:52:47;;;;;;;20.80;12.73;;;14.20;99.90;;;;;;4988818;28;20534;-50
2022/03/26 09:55:17;;;;;;;26.80;12.77;;;14.40;99.90;;;;;;4971304;28;20452;-50
2022/03/26 09:57:42;;;;;;;23.90;13.70;;;14.40;99.90;;;;;;4986418;28;20462;-50
2022/03/26 10:00:10;;;;;;;27.07;13.13;;;14.30;99.90;;;;;;4984881;28;20449;-51
2022/03/26 10:02:35;;;;;;;21.30;12.33;;;14.30;99.90;;;;;;4976077;28;20185;-50
2022/03/26 10:05:02;;;;;;;24.63;12.57;;;14.30;99.90;;;;;;4983340;28;20463;-50
2022/03/26 10:07:29;;;;;;;23.43;13.40;;;14.20;99.90;;;;;;4988701;28;20180;-50
2022/03/26 10:09:56;;;;;;;22.93;13.57;;;13.90;99.90;;;;;;4980347;28;22236;-50
2022/03/26 10:12:24;;;;;;;23.50;13.60;;;13.80;99.90;;;;;;4984641;28;20447;-50
2022/03/26 10:14:59;;;;;;;24.20;13.17;;;13.80;99.90;;;;;;4985914;28;20489;-50
2022/03/26 10:17:24;;;;;;;24.00;13.47;;;13.80;99.90;;;;;;4984010;28;20482;-50
2022/03/26 10:19:51;;;;;;;25.30;14.40;;;13.80;99.90;;;;;;4984572;28;20447;-50
2022/03/26 10:22:27;;;;;;;25.10;14.10;;;13.80;99.90;;;;;;4986637;28;20214;-50
2022/03/26 10:24:54;;;;;;;24.63;13.87;;;13.80;99.90;;;;;;4987271;28;20521;-50
2022/03/26 10:27:19;;;;;;;24.67;15.13;;;13.80;99.90;;;;;;4987000;28;20447;-50
2022/03/26 10:29:56;;;;;;;25.38;14.32;;;14.00;99.90;;;;;;4986413;28;20906;-50
2022/03/26 10:32:50;;;;;;;30.93;14.27;;;13.90;99.90;;;;;;4989496;28;20311;-50
2022/03/26 10:35:24;;;;;;;25.67;13.97;;;13.80;99.90;;;;;;4976669;28;20456;-50
2022/03/26 10:37:56;;;;;;;26.93;15.37;;;13.80;99.90;;;;;;4980649;28;20437;-50
2022/03/26 10:40:51;;;;;;;26.03;15.00;;;13.90;99.90;;;;;;4978194;28;20858;-50
2022/03/26 10:43:16;;;;;;;24.30;14.80;;;13.90;99.90;;;;;;4980396;28;20955;-50
2022/03/26 10:45:53;;;;;;;25.13;14.13;;;13.90;99.90;;;;;;4983749;28;20455;-50
2022/03/26 10:48:26;;;;;;;29.00;14.37;;;13.90;99.90;;;;;;4996263;28;20191;-50
2022/03/26 10:50:57;;;;;;;33.33;15.63;;;13.90;99.90;;;;;;4986941;28;20498;-50
2022/03/26 10:53:39;;;;;;;35.50;15.40;;;13.80;99.90;;;;;;4987384;28;20452;-50
2022/03/26 10:56:06;;;;;;;24.93;15.10;;;13.80;99.90;;;;;;4985899;28;20462;-50
2022/03/26 10:58:33;;;;;;;22.50;14.33;;;13.90;99.90;;;;;;4988322;28;20870;-50
2022/03/26 11:00:59;;;;;;;27.13;14.67;;;14.10;99.90;;;;;;4974120;28;21113;-50
2022/03/26 11:03:25;;;;;;;22.00;13.70;;;14.20;99.90;;;;;;4990573;28;20438;-50
2022/03/26 11:05:56;;;;;;;22.00;13.80;;;13.90;99.90;;;;;;4985357;28;20188;-50
2022/03/26 11:08:30;;;;;;;22.90;13.33;;;13.90;99.90;;;;;;4976110;28;20432;-50
2022/03/26 11:10:56;;;;;;;24.63;13.10;;;14.00;99.90;;;;;;4987287;28;21063;-50
2022/03/26 11:13:23;;;;;;;23.50;13.00;;;14.30;99.90;;;;;;4990040;28;20959;-50
2022/03/26 11:15:54;;;;;;;20.23;13.83;;;14.60;99.90;;;;;;4997686;28;20992;-50
2022/03/26 11:18:44;;;;;;;21.57;12.70;;;14.70;99.90;;;;;;4989516;28;20521;-50
2022/03/26 11:21:37;;;;;;;18.33;11.70;;;14.80;99.90;;;;;;4984969;28;20479;-50
2022/03/26 11:24:42;;;;;;;23.93;12.20;;;14.70;99.90;;;;;;4989744;28;20553;-50
2022/03/26 11:27:24;;;;;;;23.17;12.50;;;14.70;99.90;;;;;;4987184;28;20438;-50
2022/03/26 11:29:59;;;;;;;21.27;12.60;;;14.80;99.90;;;;;;4988143;28;20912;-50
2022/03/26 11:32:29;;;;;;;18.40;12.00;;;14.90;99.90;;;;;;4986584;28;20941;-51
2022/03/26 11:35:03;;;;;;;19.07;12.50;;;14.60;99.90;;;;;;4990943;28;20400;-50
2022/03/26 11:37:28;;;;;;;23.00;12.53;;;14.40;99.90;;;;;;4993978;28;20902;-50
2022/03/26 11:39:57;;;;;;;18.90;12.67;;;14.30;99.90;;;;;;4993572;28;20442;-50
2022/03/26 11:42:48;;;;;;;17.07;11.20;;;14.20;99.90;;;;;;4992549;28;20288;-51
2022/03/26 11:51:25;;;;;;;22.00;12.10;;;13.60;99.90;;;;;;4985544;28;20515;-50
2022/03/26 11:54:13;;;;;;;19.40;11.53;;;13.70;99.90;;;;;;4972380;28;21006;-50
2022/03/26 11:56:39;;;;;;;21.77;11.50;;;13.70;99.90;;;;;;4993741;28;20477;-50
2022/03/26 11:59:04;;;;;;;18.30;11.03;;;13.60;99.90;;;;;;4993782;28;20546;-50
2022/03/26 12:01:37;;;;;;;17.63;11.70;;;13.60;99.90;;;;;;4992024;28;20208;-50
2022/03/26 12:04:16;;;;;;;22.53;12.30;;;13.50;99.90;;;;;;4990552;28;20188;-50
2022/03/26 12:07:03;;;;;;;23.17;12.73;;;13.50;99.90;;;;;;4993315;28;20435;-50
2022/03/26 12:09:33;;;;;;;25.80;12.30;;;13.50;99.90;;;;;;4992912;28;20478;-50
2022/03/26 12:12:19;;;;;;;17.57;12.67;;;13.60;99.90;;;;;;4993951;28;20439;-50
2022/03/26 12:15:02;;;;;;;20.63;12.50;;;13.70;99.90;;;;;;4993116;28;20432;-51
2022/03/26 12:17:47;;;;;;;18.83;12.27;;;13.70;99.90;;;;;;4990640;28;20456;-51
2022/03/26 12:20:34;;;;;;;19.90;11.50;;;13.70;99.90;;;;;;4993004;28;20427;-51
2022/03/26 12:23:10;;;;;;;20.87;11.10;;;13.80;99.90;;;;;;4980671;28;20490;-51
2022/03/26 12:25:51;;;;;;;17.03;10.80;;;13.90;99.90;;;;;;4991376;28;20442;-58
2022/03/26 12:28:19;;;;;;;17.70;11.37;;;14.00;99.90;;;;;;4987092;28;20519;-51
2022/03/26 12:30:50;;;;;;;20.90;10.57;;;14.00;99.90;;;;;;4991468;28;20470;-51
2022/03/26 12:33:16;;;;;;;16.60;10.90;;;13.90;99.90;;;;;;4993790;28;20534;-51
2022/03/26 12:35:47;;;;;;;21.07;11.00;;;13.80;99.90;;;;;;5004264;28;20429;-50
2022/03/26 12:38:13;;;;;;;23.83;10.70;;;13.80;99.90;;;;;;4983887;28;20258;-51